sensor_id;sensor_type;location;lat;lon;timestamp;pressure;altitude;pressure_sealevel;temperature;humidity
64687;BME280;51113;53.646;-113.674;2022-09-09T00:02:13;93819.31;;;13.82;60.52
64687;BME280;51113;53.646;-113.674;2022-09-09T00:04:37;93820.03;;;13.63;59.99
64687;BME280;51113;53.646;-113.674;2022-09-09T00:09:48;93821.34;;;13.60;59.08
64687;BME280;51113;53.646;-113.674;2022-09-09T00:16:00;93822.41;;;13.54;60.37
64687;BME280;51113;53.646;-113.674;2022-09-09T00:21:33;93822.38;;;13.49;60.03
64687;BME280;51113;53.646;-113.674;2022-09-09T00:24:26;93822.84;;;13.36;60.89
64687;BME280;51113;53.646;-113.674;2022-09-09T00:27:04;93823.59;;;13.31;62.32
64687;BME280;51113;53.646;-113.674;2022-09-09T00:29:44;93817.06;;;13.12;62.43
64687;BME280;51113;53.646;-113.674;2022-09-09T00:32:16;93823.44;;;13.11;62.80
64687;BME280;51113;53.646;-113.674;2022-09-09T00:34:52;93819.81;;;13.22;62.98
64687;BME280;51113;53.646;-113.674;2022-09-09T00:37:24;93819.78;;;13.17;63.22
64687;BME280;51113;53.646;-113.674;2022-09-09T00:40:00;93817.56;;;13.09;63.06
64687;BME280;51113;53.646;-113.674;2022-09-09T00:42:40;93824.50;;;13.10;63.28
64687;BME280;51113;53.646;-113.674;2022-09-09T00:47:52;93823.97;;;13.08;64.09
64687;BME280;51113;53.646;-113.674;2022-09-09T00:50:35;93817.44;;;12.94;65.18
64687;BME280;51113;53.646;-113.674;2022-09-09T00:53:34;93816.34;;;12.89;65.76
64687;BME280;51113;53.646;-113.674;2022-09-09T00:56:13;93810.91;;;12.79;66.39
64687;BME280;51113;53.646;-113.674;2022-09-09T00:59:00;93822.09;;;12.76;66.92
64687;BME280;51113;53.646;-113.674;2022-09-09T01:01:35;93812.44;;;12.70;66.97
64687;BME280;51113;53.646;-113.674;2022-09-09T01:04:12;93826.03;;;12.69;66.76
64687;BME280;51113;53.646;-113.674;2022-09-09T01:06:46;93825.78;;;12.70;66.82
64687;BME280;51113;53.646;-113.674;2022-09-09T01:12:07;93820.28;;;12.50;67.74
64687;BME280;51113;53.646;-113.674;2022-09-09T01:14:43;93816.75;;;12.44;68.48
64687;BME280;51113;53.646;-113.674;2022-09-09T01:17:30;93824.94;;;12.38;68.24
64687;BME280;51113;53.646;-113.674;2022-09-09T01:20:23;93827.00;;;12.31;68.82
64687;BME280;51113;53.646;-113.674;2022-09-09T01:23:17;93824.44;;;12.14;69.95
64687;BME280;51113;53.646;-113.674;2022-09-09T01:26:14;93823.63;;;11.86;70.63
64687;BME280;51113;53.646;-113.674;2022-09-09T01:28:49;93820.75;;;11.71;71.53
64687;BME280;51113;53.646;-113.674;2022-09-09T01:31:26;93828.78;;;11.54;71.40
64687;BME280;51113;53.646;-113.674;2022-09-09T01:33:56;93831.97;;;11.35;72.02
64687;BME280;51113;53.646;-113.674;2022-09-09T01:37:07;93825.47;;;11.25;71.65
64687;BME280;51113;53.646;-113.674;2022-09-09T01:39:35;93829.13;;;11.03;72.55
64687;BME280;51113;53.646;-113.674;2022-09-09T01:42:06;93838.66;;;10.82;73.68
64687;BME280;51113;53.646;-113.674;2022-09-09T01:44:36;93839.06;;;10.74;73.44
64687;BME280;51113;53.646;-113.674;2022-09-09T01:47:07;93844.94;;;10.59;74.07
64687;BME280;51113;53.646;-113.674;2022-09-09T01:49:36;93836.06;;;10.53;74.60
64687;BME280;51113;53.646;-113.674;2022-09-09T01:52:05;93855.56;;;10.59;73.94
64687;BME280;51113;53.646;-113.674;2022-09-09T01:54:35;93866.09;;;10.71;74.33
64687;BME280;51113;53.646;-113.674;2022-09-09T02:06:37;93905.47;;;10.74;76.51
64687;BME280;51113;53.646;-113.674;2022-09-09T02:08:42;93887.50;;;10.64;75.22
64687;BME280;51113;53.646;-113.674;2022-09-09T02:11:22;93883.25;;;10.63;75.68
64687;BME280;51113;53.646;-113.674;2022-09-09T02:14:06;93886.06;;;10.56;76.57
64687;BME280;51113;53.646;-113.674;2022-09-09T02:16:56;93880.88;;;10.50;76.52
64687;BME280;51113;53.646;-113.674;2022-09-09T02:19:37;93880.31;;;10.48;75.59
64687;BME280;51113;53.646;-113.674;2022-09-09T02:22:10;93886.13;;;10.45;74.75
64687;BME280;51113;53.646;-113.674;2022-09-09T02:24:40;93881.38;;;10.47;72.02
64687;BME280;51113;53.646;-113.674;2022-09-09T02:27:09;93886.91;;;10.45;72.66
64687;BME280;51113;53.646;-113.674;2022-09-09T02:29:41;93895.25;;;10.37;72.91
64687;BME280;51113;53.646;-113.674;2022-09-09T02:32:16;93884.75;;;10.30;73.27
64687;BME280;51113;53.646;-113.674;2022-09-09T02:35:08;93887.97;;;10.32;73.42
64687;BME280;51113;53.646;-113.674;2022-09-09T02:37:40;93887.41;;;10.30;73.11
64687;BME280;51113;53.646;-113.674;2022-09-09T02:40:11;93886.44;;;10.20;73.82
64687;BME280;51113;53.646;-113.674;2022-09-09T02:42:42;93892.78;;;10.07;74.48
64687;BME280;51113;53.646;-113.674;2022-09-09T02:45:13;93889.84;;;9.92;74.81
64687;BME280;51113;53.646;-113.674;2022-09-09T02:53:15;93896.97;;;9.51;76.17
64687;BME280;51113;53.646;-113.674;2022-09-09T02:55:55;93900.06;;;9.48;77.27
64687;BME280;51113;53.646;-113.674;2022-09-09T02:58:26;93924.16;;;9.47;77.68
64687;BME280;51113;53.646;-113.674;2022-09-09T03:00:55;93923.81;;;9.31;80.80
64687;BME280;51113;53.646;-113.674;2022-09-09T03:03:26;93900.53;;;9.45;78.52
64687;BME280;51113;53.646;-113.674;2022-09-09T03:05:55;93904.69;;;10.05;70.96
64687;BME280;51113;53.646;-113.674;2022-09-09T03:08:26;93903.50;;;9.72;75.02
64687;BME280;51113;53.646;-113.674;2022-09-09T03:11:00;93907.31;;;9.53;77.72
64687;BME280;51113;53.646;-113.674;2022-09-09T03:13:31;93912.28;;;9.38;78.39
64687;BME280;51113;53.646;-113.674;2022-09-09T03:16:01;93920.72;;;9.23;82.71
64687;BME280;51113;53.646;-113.674;2022-09-09T03:18:29;93913.91;;;9.15;81.88
64687;BME280;51113;53.646;-113.674;2022-09-09T03:20:58;93917.25;;;9.11;83.73
64687;BME280;51113;53.646;-113.674;2022-09-09T03:23:27;93923.81;;;9.08;83.82
64687;BME280;51113;53.646;-113.674;2022-09-09T03:25:56;93918.84;;;9.00;84.63
64687;BME280;51113;53.646;-113.674;2022-09-09T03:28:27;93928.53;;;8.94;85.26
64687;BME280;51113;53.646;-113.674;2022-09-09T03:31:00;93944.19;;;8.96;84.40
64687;BME280;51113;53.646;-113.674;2022-09-09T03:33:29;93958.59;;;9.00;84.65
64687;BME280;51113;53.646;-113.674;2022-09-09T03:35:59;93965.03;;;9.04;84.97
64687;BME280;51113;53.646;-113.674;2022-09-09T03:38:27;93981.28;;;8.96;86.40
64687;BME280;51113;53.646;-113.674;2022-09-09T03:40:57;93990.72;;;8.92;85.67
64687;BME280;51113;53.646;-113.674;2022-09-09T03:43:26;94021.41;;;9.23;83.40
64687;BME280;51113;53.646;-113.674;2022-09-09T03:45:55;94024.28;;;8.80;88.20
64687;BME280;51113;53.646;-113.674;2022-09-09T03:48:27;94028.06;;;8.72;89.29
64687;BME280;51113;53.646;-113.674;2022-09-09T03:50:56;94031.38;;;8.67;90.96
64687;BME280;51113;53.646;-113.674;2022-09-09T03:53:29;94032.56;;;8.72;88.58
64687;BME280;51113;53.646;-113.674;2022-09-09T03:55:58;94037.72;;;8.66;89.21
64687;BME280;51113;53.646;-113.674;2022-09-09T03:58:28;94035.38;;;8.58;89.23
64687;BME280;51113;53.646;-113.674;2022-09-09T04:01:01;94035.81;;;8.55;90.41
64687;BME280;51113;53.646;-113.674;2022-09-09T04:03:31;94021.38;;;8.40;90.71
64687;BME280;51113;53.646;-113.674;2022-09-09T04:06:02;94024.69;;;8.35;91.20
64687;BME280;51113;53.646;-113.674;2022-09-09T04:08:34;94016.56;;;8.30;91.70
64687;BME280;51113;53.646;-113.674;2022-09-09T04:11:04;94004.00;;;8.25;91.30
64687;BME280;51113;53.646;-113.674;2022-09-09T04:13:35;94008.50;;;8.25;92.96
64687;BME280;51113;53.646;-113.674;2022-09-09T04:16:06;93996.94;;;8.19;92.89
64687;BME280;51113;53.646;-113.674;2022-09-09T04:18:36;93991.34;;;8.27;91.73
64687;BME280;51113;53.646;-113.674;2022-09-09T04:21:08;93986.81;;;8.16;92.27
64687;BME280;51113;53.646;-113.674;2022-09-09T04:23:39;93982.69;;;8.20;90.89
64687;BME280;51113;53.646;-113.674;2022-09-09T04:26:08;93974.09;;;8.25;93.38
64687;BME280;51113;53.646;-113.674;2022-09-09T04:28:37;93974.13;;;8.06;94.50
64687;BME280;51113;53.646;-113.674;2022-09-09T04:31:10;93980.16;;;7.95;95.41
64687;BME280;51113;53.646;-113.674;2022-09-09T04:33:41;93982.50;;;7.85;96.27
64687;BME280;51113;53.646;-113.674;2022-09-09T04:36:10;93994.78;;;7.73;95.79
64687;BME280;51113;53.646;-113.674;2022-09-09T04:38:39;93989.59;;;7.66;95.96
64687;BME280;51113;53.646;-113.674;2022-09-09T04:41:08;93986.41;;;7.58;96.41
64687;BME280;51113;53.646;-113.674;2022-09-09T04:43:39;93982.00;;;7.52;96.35
64687;BME280;51113;53.646;-113.674;2022-09-09T04:46:08;93985.34;;;7.40;96.82
64687;BME280;51113;53.646;-113.674;2022-09-09T04:48:36;93991.94;;;7.31;96.86
64687;BME280;51113;53.646;-113.674;2022-09-09T04:51:06;93993.56;;;7.32;96.63
64687;BME280;51113;53.646;-113.674;2022-09-09T04:53:37;93991.03;;;7.19;96.41
64687;BME280;51113;53.646;-113.674;2022-09-09T04:56:08;93989.75;;;7.03;97.22
64687;BME280;51113;53.646;-113.674;2022-09-09T04:58:39;93991.84;;;6.95;96.57
64687;BME280;51113;53.646;-113.674;2022-09-09T05:01:20;93981.59;;;6.80;97.23
64687;BME280;51113;53.646;-113.674;2022-09-09T05:03:52;93989.56;;;6.73;98.25
64687;BME280;51113;53.646;-113.674;2022-09-09T05:06:21;93990.44;;;6.61;98.18
64687;BME280;51113;53.646;-113.674;2022-09-09T05:08:51;93992.56;;;6.45;98.39
64687;BME280;51113;53.646;-113.674;2022-09-09T05:11:28;93993.03;;;6.36;98.40
64687;BME280;51113;53.646;-113.674;2022-09-09T05:13:56;93986.00;;;6.23;99.21
64687;BME280;51113;53.646;-113.674;2022-09-09T05:16:24;93988.69;;;6.10;99.55
64687;BME280;51113;53.646;-113.674;2022-09-09T05:18:54;93988.91;;;6.08;100.00
64687;BME280;51113;53.646;-113.674;2022-09-09T05:21:24;93990.75;;;6.01;100.00
64687;BME280;51113;53.646;-113.674;2022-09-09T05:23:56;93998.06;;;5.99;100.00
64687;BME280;51113;53.646;-113.674;2022-09-09T05:26:25;93987.16;;;5.89;100.00
64687;BME280;51113;53.646;-113.674;2022-09-09T05:28:54;93995.84;;;5.83;100.00
64687;BME280;51113;53.646;-113.674;2022-09-09T05:31:23;93991.22;;;5.78;100.00
64687;BME280;51113;53.646;-113.674;2022-09-09T05:33:53;93991.44;;;5.64;100.00
64687;BME280;51113;53.646;-113.674;2022-09-09T05:36:22;93987.81;;;5.65;100.00
64687;BME280;51113;53.646;-113.674;2022-09-09T05:38:51;94000.56;;;5.68;100.00
64687;BME280;51113;53.646;-113.674;2022-09-09T05:41:22;93992.88;;;5.60;100.00
64687;BME280;51113;53.646;-113.674;2022-09-09T05:43:51;94000.38;;;5.56;100.00
64687;BME280;51113;53.646;-113.674;2022-09-09T05:46:21;93998.38;;;5.45;100.00
64687;BME280;51113;53.646;-113.674;2022-09-09T05:48:51;93995.56;;;5.33;100.00
64687;BME280;51113;53.646;-113.674;2022-09-09T05:51:23;94001.22;;;5.37;100.00
64687;BME280;51113;53.646;-113.674;2022-09-09T05:53:52;94003.47;;;5.40;100.00
64687;BME280;51113;53.646;-113.674;2022-09-09T05:56:25;94002.25;;;5.42;100.00
64687;BME280;51113;53.646;-113.674;2022-09-09T05:58:55;94001.84;;;5.39;100.00
64687;BME280;51113;53.646;-113.674;2022-09-09T06:01:26;94009.31;;;5.42;100.00
64687;BME280;51113;53.646;-113.674;2022-09-09T06:03:55;94016.22;;;5.36;100.00
64687;BME280;51113;53.646;-113.674;2022-09-09T06:06:26;94013.78;;;5.35;100.00
64687;BME280;51113;53.646;-113.674;2022-09-09T06:08:56;94020.06;;;5.40;100.00
64687;BME280;51113;53.646;-113.674;2022-09-09T06:11:30;94025.94;;;5.42;100.00
64687;BME280;51113;53.646;-113.674;2022-09-09T06:14:01;94028.38;;;5.31;100.00
64687;BME280;51113;53.646;-113.674;2022-09-09T06:16:31;94028.38;;;5.31;100.00
64687;BME280;51113;53.646;-113.674;2022-09-09T06:19:03;94032.44;;;5.33;100.00
64687;BME280;51113;53.646;-113.674;2022-09-09T06:21:35;94033.03;;;5.22;100.00
64687;BME280;51113;53.646;-113.674;2022-09-09T06:24:07;94031.22;;;5.29;100.00
64687;BME280;51113;53.646;-113.674;2022-09-09T06:26:37;94028.38;;;5.24;100.00
64687;BME280;51113;53.646;-113.674;2022-09-09T06:29:09;94030.59;;;5.14;100.00
64687;BME280;51113;53.646;-113.674;2022-09-09T06:31:38;94035.25;;;4.99;100.00
64687;BME280;51113;53.646;-113.674;2022-09-09T06:34:08;94033.03;;;5.09;100.00
64687;BME280;51113;53.646;-113.674;2022-09-09T06:36:38;94036.06;;;4.99;100.00
64687;BME280;51113;53.646;-113.674;2022-09-09T06:39:07;94041.53;;;4.98;100.00
64687;BME280;51113;53.646;-113.674;2022-09-09T06:41:41;94045.16;;;4.90;100.00
64687;BME280;51113;53.646;-113.674;2022-09-09T06:44:10;94049.00;;;5.01;100.00
64687;BME280;51113;53.646;-113.674;2022-09-09T06:46:40;94043.94;;;4.86;100.00
64687;BME280;51113;53.646;-113.674;2022-09-09T06:49:09;94046.38;;;5.01;100.00
64687;BME280;51113;53.646;-113.674;2022-09-09T06:51:38;94052.66;;;5.00;100.00
64687;BME280;51113;53.646;-113.674;2022-09-09T06:54:13;94051.84;;;4.99;100.00
64687;BME280;51113;53.646;-113.674;2022-09-09T06:56:42;94049.00;;;5.01;100.00
64687;BME280;51113;53.646;-113.674;2022-09-09T06:59:12;94053.66;;;4.99;100.00
64687;BME280;51113;53.646;-113.674;2022-09-09T07:01:42;94055.88;;;4.95;100.00
64687;BME280;51113;53.646;-113.674;2022-09-09T07:04:22;94058.13;;;4.98;100.00
64687;BME280;51113;53.646;-113.674;2022-09-09T07:06:51;94059.53;;;5.01;100.00
64687;BME280;51113;53.646;-113.674;2022-09-09T07:09:23;94058.13;;;5.05;100.00
64687;BME280;51113;53.646;-113.674;2022-09-09T07:11:52;94066.63;;;5.07;100.00
64687;BME280;51113;53.646;-113.674;2022-09-09T07:14:21;94065.00;;;5.12;100.00
64687;BME280;51113;53.646;-113.674;2022-09-09T07:16:50;94053.88;;;5.17;100.00
64687;BME280;51113;53.646;-113.674;2022-09-09T07:19:25;94054.88;;;5.16;100.00
64687;BME280;51113;53.646;-113.674;2022-09-09T07:21:54;94058.94;;;5.18;100.00
64687;BME280;51113;53.646;-113.674;2022-09-09T07:24:23;94062.22;;;5.21;100.00
64687;BME280;51113;53.646;-113.674;2022-09-09T07:26:52;94062.22;;;5.21;100.00
64687;BME280;51113;53.646;-113.674;2022-09-09T07:29:21;94071.94;;;5.20;100.00
64687;BME280;51113;53.646;-113.674;2022-09-09T07:31:50;94072.72;;;5.14;100.00
64687;BME280;51113;53.646;-113.674;2022-09-09T07:34:19;94075.53;;;5.12;100.00
64687;BME280;51113;53.646;-113.674;2022-09-09T07:36:47;94077.78;;;5.09;100.00
64687;BME280;51113;53.646;-113.674;2022-09-09T07:39:17;94071.69;;;5.08;100.00
64687;BME280;51113;53.646;-113.674;2022-09-09T07:41:48;94073.91;;;5.05;100.00
64687;BME280;51113;53.646;-113.674;2022-09-09T07:44:20;94067.44;;;5.01;100.00
64687;BME280;51113;53.646;-113.674;2022-09-09T07:46:49;94076.34;;;5.00;99.94
64687;BME280;51113;53.646;-113.674;2022-09-09T07:49:19;94078.38;;;4.98;99.97
64687;BME280;51113;53.646;-113.674;2022-09-09T07:51:56;94068.03;;;4.90;100.00
64687;BME280;51113;53.646;-113.674;2022-09-09T07:54:26;94075.91;;;4.83;100.00
64687;BME280;51113;53.646;-113.674;2022-09-09T07:56:55;94079.94;;;4.72;100.00
64687;BME280;51113;53.646;-113.674;2022-09-09T07:59:29;94081.13;;;4.63;100.00
64687;BME280;51113;53.646;-113.674;2022-09-09T08:01:58;94084.38;;;4.65;100.00
64687;BME280;51113;53.646;-113.674;2022-09-09T08:04:27;94089.63;;;4.65;100.00
64687;BME280;51113;53.646;-113.674;2022-09-09T08:06:58;94091.25;;;4.66;100.00
64687;BME280;51113;53.646;-113.674;2022-09-09T08:09:27;94082.78;;;4.71;100.00
64687;BME280;51113;53.646;-113.674;2022-09-09T08:12:00;94078.91;;;4.67;100.00
64687;BME280;51113;53.646;-113.674;2022-09-09T08:14:29;94085.41;;;4.77;100.00
64687;BME280;51113;53.646;-113.674;2022-09-09T08:16:58;94082.97;;;4.76;100.00
64687;BME280;51113;53.646;-113.674;2022-09-09T08:19:27;94088.03;;;4.77;100.00
64687;BME280;51113;53.646;-113.674;2022-09-09T08:22:03;94088.44;;;4.74;100.00
64687;BME280;51113;53.646;-113.674;2022-09-09T08:24:31;94089.06;;;4.76;100.00
64687;BME280;51113;53.646;-113.674;2022-09-09T08:27:00;94092.09;;;4.80;100.00
64687;BME280;51113;53.646;-113.674;2022-09-09T08:29:29;94089.25;;;4.75;100.00
64687;BME280;51113;53.646;-113.674;2022-09-09T08:31:58;94085.41;;;4.71;100.00
64687;BME280;51113;53.646;-113.674;2022-09-09T08:34:27;94088.00;;;4.64;100.00
64687;BME280;51113;53.646;-113.674;2022-09-09T08:36:58;94088.00;;;4.64;100.00
64687;BME280;51113;53.646;-113.674;2022-09-09T08:39:27;94088.38;;;4.48;100.00
64687;BME280;51113;53.646;-113.674;2022-09-09T08:42:36;94088.53;;;4.40;100.00
64687;BME280;51113;53.646;-113.674;2022-09-09T08:48:18;94083.66;;;4.30;100.00
64687;BME280;51113;53.646;-113.674;2022-09-09T08:50:52;94089.69;;;4.24;100.00
64687;BME280;51113;53.646;-113.674;2022-09-09T08:53:26;94092.28;;;4.17;100.00
64687;BME280;51113;53.646;-113.674;2022-09-09T08:56:01;94084.59;;;4.16;100.00
64687;BME280;51113;53.646;-113.674;2022-09-09T08:58:34;94077.06;;;4.06;100.00
64687;BME280;51113;53.646;-113.674;2022-09-09T09:11:56;94073.78;;;3.91;100.00
64687;BME280;51113;53.646;-113.674;2022-09-09T09:14:35;94077.09;;;3.72;100.00
64687;BME280;51113;53.646;-113.674;2022-09-09T09:17:11;94080.16;;;3.75;100.00
64687;BME280;51113;53.646;-113.674;2022-09-09T09:19:44;94082.34;;;3.72;100.00
64687;BME280;51113;53.646;-113.674;2022-09-09T09:22:22;94084.78;;;3.73;100.00
64687;BME280;51113;53.646;-113.674;2022-09-09T09:25:08;94087.91;;;3.55;100.00
64687;BME280;51113;53.646;-113.674;2022-09-09T09:30:40;94076.97;;;3.52;100.00
64687;BME280;51113;53.646;-113.674;2022-09-09T09:35:51;94076.69;;;3.40;100.00
64687;BME280;51113;53.646;-113.674;2022-09-09T09:38:24;94071.63;;;3.39;100.00
64687;BME280;51113;53.646;-113.674;2022-09-09T09:41:13;94075.81;;;3.33;100.00
64687;BME280;51113;53.646;-113.674;2022-09-09T09:43:41;94078.44;;;3.33;100.00
64687;BME280;51113;53.646;-113.674;2022-09-09T09:46:22;94079.50;;;3.39;100.00
64687;BME280;51113;53.646;-113.674;2022-09-09T09:49:04;94075.47;;;3.71;100.00
64687;BME280;51113;53.646;-113.674;2022-09-09T09:51:36;94068.25;;;3.79;100.00
64687;BME280;51113;53.646;-113.674;2022-09-09T09:56:37;94072.66;;;3.72;100.00
64687;BME280;51113;53.646;-113.674;2022-09-09T10:04:43;94084.66;;;3.53;100.00
64687;BME280;51113;53.646;-113.674;2022-09-09T10:07:22;94085.66;;;3.52;100.00
64687;BME280;51113;53.646;-113.674;2022-09-09T10:09:54;94091.19;;;3.36;100.00
64687;BME280;51113;53.646;-113.674;2022-09-09T10:12:59;94088.19;;;3.39;100.00
64687;BME280;51113;53.646;-113.674;2022-09-09T10:18:36;94088.00;;;3.69;100.00
64687;BME280;51113;53.646;-113.674;2022-09-09T10:35:01;94086.47;;;3.87;100.00
64687;BME280;51113;53.646;-113.674;2022-09-09T10:37:57;94084.03;;;3.86;100.00
64687;BME280;51113;53.646;-113.674;2022-09-09T10:40:38;94080.84;;;3.91;100.00
64687;BME280;51113;53.646;-113.674;2022-09-09T10:46:16;94087.72;;;3.92;100.00
64687;BME280;51113;53.646;-113.674;2022-09-09T10:49:12;94081.06;;;3.96;100.00
64687;BME280;51113;53.646;-113.674;2022-09-09T10:55:15;94095.88;;;4.03;100.00
64687;BME280;51113;53.646;-113.674;2022-09-09T10:57:45;94098.34;;;4.11;100.00
64687;BME280;51113;53.646;-113.674;2022-09-09T11:03:03;94092.91;;;4.19;100.00
64687;BME280;51113;53.646;-113.674;2022-09-09T11:05:43;94097.56;;;4.17;100.00
64687;BME280;51113;53.646;-113.674;2022-09-09T11:08:21;94103.63;;;4.18;100.00
64687;BME280;51113;53.646;-113.674;2022-09-09T11:10:58;94102.38;;;4.14;100.00
64687;BME280;51113;53.646;-113.674;2022-09-09T11:13:49;94107.66;;;4.14;100.00
64687;BME280;51113;53.646;-113.674;2022-09-09T11:22:32;94109.44;;;4.07;100.00
64687;BME280;51113;53.646;-113.674;2022-09-09T11:30:20;94112.03;;;4.00;100.00
64687;BME280;51113;53.646;-113.674;2022-09-09T11:38:47;94121.44;;;3.88;100.00
64687;BME280;51113;53.646;-113.674;2022-09-09T11:41:16;94121.19;;;3.76;100.00
64687;BME280;51113;53.646;-113.674;2022-09-09T11:43:53;94117.13;;;3.74;100.00
64687;BME280;51113;53.646;-113.674;2022-09-09T11:46:33;94121.31;;;3.68;100.00
64687;BME280;51113;53.646;-113.674;2022-09-09T11:49:06;94123.91;;;3.62;100.00
64687;BME280;51113;53.646;-113.674;2022-09-09T11:51:35;94123.09;;;3.61;100.00
64687;BME280;51113;53.646;-113.674;2022-09-09T11:54:29;94130.16;;;3.61;100.00
64687;BME280;51113;53.646;-113.674;2022-09-09T11:56:59;94128.16;;;3.63;100.00
64687;BME280;51113;53.646;-113.674;2022-09-09T11:59:29;94123.47;;;3.58;100.00
64687;BME280;51113;53.646;-113.674;2022-09-09T12:02:03;94123.41;;;3.51;100.00
64687;BME280;51113;53.646;-113.674;2022-09-09T12:07:38;94132.44;;;3.42;100.00
64687;BME280;51113;53.646;-113.674;2022-09-09T12:10:27;94137.50;;;3.44;100.00
64687;BME280;51113;53.646;-113.674;2022-09-09T12:13:19;94143.94;;;3.41;100.00
64687;BME280;51113;53.646;-113.674;2022-09-09T12:15:50;94146.31;;;3.36;100.00
64687;BME280;51113;53.646;-113.674;2022-09-09T12:18:35;94142.31;;;3.40;100.00
64687;BME280;51113;53.646;-113.674;2022-09-09T12:21:32;94138.63;;;3.35;100.00
64687;BME280;51113;53.646;-113.674;2022-09-09T12:24:11;94145.19;;;3.45;100.00
64687;BME280;51113;53.646;-113.674;2022-09-09T12:26:52;94144.94;;;3.40;100.00
64687;BME280;51113;53.646;-113.674;2022-09-09T12:32:24;94140.22;;;3.29;100.00
64687;BME280;51113;53.646;-113.674;2022-09-09T12:34:56;94138.78;;;3.27;100.00
64687;BME280;51113;53.646;-113.674;2022-09-09T12:37:34;94141.59;;;3.25;100.00
64687;BME280;51113;53.646;-113.674;2022-09-09T12:40:14;94143.84;;;3.28;100.00
64687;BME280;51113;53.646;-113.674;2022-09-09T12:42:47;94144.41;;;3.23;100.00
64687;BME280;51113;53.646;-113.674;2022-09-09T12:45:23;94142.53;;;3.17;100.00
64687;BME280;51113;53.646;-113.674;2022-09-09T12:47:59;94133.41;;;3.13;100.00
64687;BME280;51113;53.646;-113.674;2022-09-09T12:50:34;94144.91;;;3.12;100.00
64687;BME280;51113;53.646;-113.674;2022-09-09T12:53:28;94146.28;;;3.08;100.00
64687;BME280;51113;53.646;-113.674;2022-09-09T12:56:04;94156.34;;;3.05;100.00
64687;BME280;51113;53.646;-113.674;2022-09-09T12:58:38;94150.47;;;3.03;100.00
64687;BME280;51113;53.646;-113.674;2022-09-09T13:01:20;94162.22;;;3.07;100.00
64687;BME280;51113;53.646;-113.674;2022-09-09T13:03:50;94153.09;;;3.03;100.00
64687;BME280;51113;53.646;-113.674;2022-09-09T13:06:30;94160.59;;;3.06;100.00
64687;BME280;51113;53.646;-113.674;2022-09-09T13:09:00;94166.22;;;3.03;100.00
64687;BME280;51113;53.646;-113.674;2022-09-09T13:11:41;94168.66;;;3.04;100.00
64687;BME280;51113;53.646;-113.674;2022-09-09T13:14:23;94173.22;;;3.17;100.00
64687;BME280;51113;53.646;-113.674;2022-09-09T13:16:57;94166.78;;;3.19;100.00
64687;BME280;51113;53.646;-113.674;2022-09-09T13:19:37;94171.09;;;3.27;100.00
64687;BME280;51113;53.646;-113.674;2022-09-09T13:22:20;94175.16;;;3.30;100.00
64687;BME280;51113;53.646;-113.674;2022-09-09T13:25:06;94172.34;;;3.31;100.00
64687;BME280;51113;53.646;-113.674;2022-09-09T13:27:40;94169.75;;;3.38;100.00
64687;BME280;51113;53.646;-113.674;2022-09-09T13:36:04;94184.81;;;3.50;100.00
64687;BME280;51113;53.646;-113.674;2022-09-09T13:38:38;94193.50;;;3.51;100.00
64687;BME280;51113;53.646;-113.674;2022-09-09T13:41:09;94183.88;;;3.58;100.00
64687;BME280;51113;53.646;-113.674;2022-09-09T13:43:45;94186.56;;;3.65;100.00
64687;BME280;51113;53.646;-113.674;2022-09-09T13:46:29;94185.56;;;3.66;100.00
64687;BME280;51113;53.646;-113.674;2022-09-09T13:49:01;94195.97;;;3.80;100.00
64687;BME280;51113;53.646;-113.674;2022-09-09T13:51:43;94193.16;;;3.82;100.00
64687;BME280;51113;53.646;-113.674;2022-09-09T13:54:17;94197.03;;;3.86;100.00
64687;BME280;51113;53.646;-113.674;2022-09-09T13:56:46;94194.41;;;3.86;100.00
64687;BME280;51113;53.646;-113.674;2022-09-09T13:59:17;94196.88;;;3.94;100.00
64687;BME280;51113;53.646;-113.674;2022-09-09T14:01:49;94197.22;;;4.12;100.00
64687;BME280;51113;53.646;-113.674;2022-09-09T14:04:20;94202.56;;;4.26;100.00
64687;BME280;51113;53.646;-113.674;2022-09-09T14:06:50;94197.75;;;4.36;100.00
64687;BME280;51113;53.646;-113.674;2022-09-09T14:09:19;94204.47;;;4.45;100.00
64687;BME280;51113;53.646;-113.674;2022-09-09T14:11:48;94198.91;;;4.61;100.00
64687;BME280;51113;53.646;-113.674;2022-09-09T14:14:19;94202.59;;;4.73;100.00
64687;BME280;51113;53.646;-113.674;2022-09-09T14:16:48;94212.34;;;4.79;100.00
64687;BME280;51113;53.646;-113.674;2022-09-09T14:19:17;94208.94;;;4.92;100.00
64687;BME280;51113;53.646;-113.674;2022-09-09T14:21:46;94215.25;;;5.04;100.00
64687;BME280;51113;53.646;-113.674;2022-09-09T14:24:14;94206.78;;;5.15;100.00
64687;BME280;51113;53.646;-113.674;2022-09-09T14:26:43;94206.44;;;5.25;100.00
64687;BME280;51113;53.646;-113.674;2022-09-09T14:29:13;94211.94;;;5.37;100.00
64687;BME280;51113;53.646;-113.674;2022-09-09T14:31:41;94209.72;;;5.47;100.00
64687;BME280;51113;53.646;-113.674;2022-09-09T14:34:09;94213.38;;;5.59;100.00
64687;BME280;51113;53.646;-113.674;2022-09-09T14:36:38;94216.25;;;5.71;100.00
64687;BME280;51113;53.646;-113.674;2022-09-09T14:39:07;94229.22;;;5.86;100.00
64687;BME280;51113;53.646;-113.674;2022-09-09T14:41:36;94222.56;;;6.03;100.00
64687;BME280;51113;53.646;-113.674;2022-09-09T14:44:04;94224.78;;;6.12;99.25
64687;BME280;51113;53.646;-113.674;2022-09-09T14:46:35;94227.03;;;6.22;99.18
64687;BME280;51113;53.646;-113.674;2022-09-09T14:49:03;94225.59;;;6.33;98.85
64687;BME280;51113;53.646;-113.674;2022-09-09T14:51:32;94237.53;;;6.42;98.35
64687;BME280;51113;53.646;-113.674;2022-09-09T14:54:02;94230.44;;;6.49;98.18
64687;BME280;51113;53.646;-113.674;2022-09-09T14:56:32;94232.84;;;6.57;97.93
64687;BME280;51113;53.646;-113.674;2022-09-09T14:59:02;94228.56;;;6.63;96.89